sensor_id;sensor_type;location;lat;lon;timestamp;temperature;humidity
2439;DHT22;14509;47.992;7.848;2023-09-30T00:00:17;22.40;53.90
2439;DHT22;14509;47.992;7.848;2023-09-30T00:02:19;22.40;53.90
2439;DHT22;14509;47.992;7.848;2023-09-30T00:04:21;22.90;54.40
2439;DHT22;14509;47.992;7.848;2023-09-30T00:06:24;22.30;53.90
2439;DHT22;14509;47.992;7.848;2023-09-30T00:08:26;22.30;54.10
2439;DHT22;14509;47.992;7.848;2023-09-30T00:10:28;22.20;54.20
2439;DHT22;14509;47.992;7.848;2023-09-30T00:12:30;22.80;54.80
2439;DHT22;14509;47.992;7.848;2023-09-30T00:14:32;22.10;54.40
2439;DHT22;14509;47.992;7.848;2023-09-30T00:16:34;22.10;54.50
2439;DHT22;14509;47.992;7.848;2023-09-30T00:18:36;22.00;54.60
2439;DHT22;14509;47.992;7.848;2023-09-30T00:20:38;22.00;54.80
2439;DHT22;14509;47.992;7.848;2023-09-30T00:22:41;21.90;55.00
2439;DHT22;14509;47.992;7.848;2023-09-30T00:24:43;21.90;55.20
2439;DHT22;14509;47.992;7.848;2023-09-30T00:26:45;21.80;55.30
2439;DHT22;14509;47.992;7.848;2023-09-30T00:28:46;21.80;55.50
2439;DHT22;14509;47.992;7.848;2023-09-30T00:30:48;21.70;56.20
2439;DHT22;14509;47.992;7.848;2023-09-30T00:32:50;21.70;55.80
2439;DHT22;14509;47.992;7.848;2023-09-30T00:34:52;21.60;55.90
2439;DHT22;14509;47.992;7.848;2023-09-30T00:36:55;21.60;56.10
2439;DHT22;14509;47.992;7.848;2023-09-30T00:38:58;21.60;56.30
2439;DHT22;14509;47.992;7.848;2023-09-30T00:40:59;21.60;56.50
2439;DHT22;14509;47.992;7.848;2023-09-30T00:43:01;21.50;56.50
2439;DHT22;14509;47.992;7.848;2023-09-30T00:45:03;21.40;56.50
2439;DHT22;14509;47.992;7.848;2023-09-30T00:47:07;21.40;56.70
2439;DHT22;14509;47.992;7.848;2023-09-30T00:49:14;21.30;56.80
2439;DHT22;14509;47.992;7.848;2023-09-30T00:51:15;21.30;56.90
2439;DHT22;14509;47.992;7.848;2023-09-30T00:53:17;21.30;57.00
2439;DHT22;14509;47.992;7.848;2023-09-30T00:55:21;21.20;57.10
2439;DHT22;14509;47.992;7.848;2023-09-30T00:57:24;21.20;57.20
2439;DHT22;14509;47.992;7.848;2023-09-30T00:59:29;21.20;57.30
2439;DHT22;14509;47.992;7.848;2023-09-30T01:01:33;21.20;57.40
2439;DHT22;14509;47.992;7.848;2023-09-30T01:03:36;21.10;57.40
2439;DHT22;14509;47.992;7.848;2023-09-30T01:05:38;21.10;57.50
2439;DHT22;14509;47.992;7.848;2023-09-30T01:07:40;21.10;57.70
2439;DHT22;14509;47.992;7.848;2023-09-30T01:09:42;21.10;57.80
2439;DHT22;14509;47.992;7.848;2023-09-30T01:11:45;21.10;57.90
2439;DHT22;14509;47.992;7.848;2023-09-30T01:13:48;21.10;57.90
2439;DHT22;14509;47.992;7.848;2023-09-30T01:15:50;21.20;57.80
2439;DHT22;14509;47.992;7.848;2023-09-30T01:17:51;21.30;57.70
2439;DHT22;14509;47.992;7.848;2023-09-30T01:19:53;21.30;57.50
2439;DHT22;14509;47.992;7.848;2023-09-30T01:21:57;21.30;57.40
2439;DHT22;14509;47.992;7.848;2023-09-30T01:23:59;21.40;57.40
2439;DHT22;14509;47.992;7.848;2023-09-30T01:26:02;21.40;57.40
2439;DHT22;14509;47.992;7.848;2023-09-30T01:28:08;21.50;57.40
2439;DHT22;14509;47.992;7.848;2023-09-30T01:30:11;21.50;57.30
2439;DHT22;14509;47.992;7.848;2023-09-30T01:32:14;21.50;57.80
2439;DHT22;14509;47.992;7.848;2023-09-30T01:34:16;21.60;57.20
2439;DHT22;14509;47.992;7.848;2023-09-30T01:36:18;21.60;57.00
2439;DHT22;14509;47.992;7.848;2023-09-30T01:38:21;21.60;56.80
2439;DHT22;14509;47.992;7.848;2023-09-30T01:40:23;21.80;56.90
2439;DHT22;14509;47.992;7.848;2023-09-30T01:42:25;21.70;56.70
2439;DHT22;14509;47.992;7.848;2023-09-30T01:44:28;21.80;56.70
2439;DHT22;14509;47.992;7.848;2023-09-30T01:46:30;21.80;56.40
2439;DHT22;14509;47.992;7.848;2023-09-30T01:48:31;21.90;56.40
2439;DHT22;14509;47.992;7.848;2023-09-30T01:50:33;21.80;56.30
2439;DHT22;14509;47.992;7.848;2023-09-30T01:52:34;21.70;56.20
2439;DHT22;14509;47.992;7.848;2023-09-30T01:54:37;22.30;56.70
2439;DHT22;14509;47.992;7.848;2023-09-30T01:56:39;21.70;56.30
2439;DHT22;14509;47.992;7.848;2023-09-30T01:58:41;21.60;56.40
2439;DHT22;14509;47.992;7.848;2023-09-30T02:00:43;21.60;56.60
2439;DHT22;14509;47.992;7.848;2023-09-30T02:02:46;21.50;56.70
2439;DHT22;14509;47.992;7.848;2023-09-30T02:04:46;21.40;56.90
2439;DHT22;14509;47.992;7.848;2023-09-30T02:06:48;21.30;57.10
2439;DHT22;14509;47.992;7.848;2023-09-30T02:08:50;21.20;57.20
2439;DHT22;14509;47.992;7.848;2023-09-30T02:10:53;21.10;57.40
2439;DHT22;14509;47.992;7.848;2023-09-30T02:12:55;21.10;57.80
2439;DHT22;14509;47.992;7.848;2023-09-30T02:14:58;21.00;57.70
2439;DHT22;14509;47.992;7.848;2023-09-30T02:17:00;20.90;58.00
2439;DHT22;14509;47.992;7.848;2023-09-30T02:19:02;20.90;58.20
2439;DHT22;14509;47.992;7.848;2023-09-30T02:21:04;20.70;58.10
2439;DHT22;14509;47.992;7.848;2023-09-30T02:23:06;20.70;58.20
2439;DHT22;14509;47.992;7.848;2023-09-30T02:25:08;20.60;58.30
2439;DHT22;14509;47.992;7.848;2023-09-30T02:27:11;20.60;58.60
2439;DHT22;14509;47.992;7.848;2023-09-30T02:29:14;20.40;58.50
2439;DHT22;14509;47.992;7.848;2023-09-30T02:31:16;20.50;58.80
2439;DHT22;14509;47.992;7.848;2023-09-30T02:33:18;20.40;59.00
2439;DHT22;14509;47.992;7.848;2023-09-30T02:35:20;20.40;59.10
2439;DHT22;14509;47.992;7.848;2023-09-30T02:37:22;20.30;59.30
2439;DHT22;14509;47.992;7.848;2023-09-30T02:39:24;20.20;59.50
2439;DHT22;14509;47.992;7.848;2023-09-30T02:41:27;20.20;59.80
2439;DHT22;14509;47.992;7.848;2023-09-30T02:43:29;20.10;59.80
2439;DHT22;14509;47.992;7.848;2023-09-30T02:45:31;20.00;59.90
2439;DHT22;14509;47.992;7.848;2023-09-30T02:47:32;19.90;59.90
2439;DHT22;14509;47.992;7.848;2023-09-30T02:49:34;19.90;60.00
2439;DHT22;14509;47.992;7.848;2023-09-30T02:51:36;19.90;60.10
2439;DHT22;14509;47.992;7.848;2023-09-30T02:53:38;19.90;60.30
2439;DHT22;14509;47.992;7.848;2023-09-30T02:55:40;19.80;60.20
2439;DHT22;14509;47.992;7.848;2023-09-30T02:57:44;19.80;60.30
2439;DHT22;14509;47.992;7.848;2023-09-30T02:59:48;20.00;60.70
2439;DHT22;14509;47.992;7.848;2023-09-30T03:01:52;20.00;60.80
2439;DHT22;14509;47.992;7.848;2023-09-30T03:03:55;19.80;60.60
2439;DHT22;14509;47.992;7.848;2023-09-30T03:05:57;19.80;60.70
2439;DHT22;14509;47.992;7.848;2023-09-30T03:08:01;19.70;60.60
2439;DHT22;14509;47.992;7.848;2023-09-30T03:10:03;19.70;60.50
2439;DHT22;14509;47.992;7.848;2023-09-30T03:12:10;19.70;60.40
2439;DHT22;14509;47.992;7.848;2023-09-30T03:14:12;19.70;60.40
2439;DHT22;14509;47.992;7.848;2023-09-30T03:16:16;19.70;60.40
2439;DHT22;14509;47.992;7.848;2023-09-30T03:18:16;19.70;60.20
2439;DHT22;14509;47.992;7.848;2023-09-30T03:20:23;20.70;61.50
2439;DHT22;14509;47.992;7.848;2023-09-30T03:22:26;19.60;60.40
2439;DHT22;14509;47.992;7.848;2023-09-30T03:24:28;20.30;62.20
2439;DHT22;14509;47.992;7.848;2023-09-30T03:26:30;19.50;60.60
2439;DHT22;14509;47.992;7.848;2023-09-30T03:28:33;19.70;61.10
2439;DHT22;14509;47.992;7.848;2023-09-30T03:30:34;19.50;60.90
2439;DHT22;14509;47.992;7.848;2023-09-30T03:32:38;19.50;61.00
2439;DHT22;14509;47.992;7.848;2023-09-30T03:34:39;19.50;60.90
2439;DHT22;14509;47.992;7.848;2023-09-30T03:36:45;19.50;60.80
2439;DHT22;14509;47.992;7.848;2023-09-30T03:38:47;19.50;60.50
2439;DHT22;14509;47.992;7.848;2023-09-30T03:40:49;19.50;60.60
2439;DHT22;14509;47.992;7.848;2023-09-30T03:42:51;20.40;62.20
2439;DHT22;14509;47.992;7.848;2023-09-30T03:44:53;20.40;62.20
2439;DHT22;14509;47.992;7.848;2023-09-30T03:46:54;19.30;61.00
2439;DHT22;14509;47.992;7.848;2023-09-30T03:48:58;19.60;61.50
2439;DHT22;14509;47.992;7.848;2023-09-30T03:51:08;19.30;61.30
2439;DHT22;14509;47.992;7.848;2023-09-30T03:53:09;19.30;61.50
2439;DHT22;14509;47.992;7.848;2023-09-30T03:55:11;19.30;61.40
2439;DHT22;14509;47.992;7.848;2023-09-30T03:57:13;19.30;61.40
2439;DHT22;14509;47.992;7.848;2023-09-30T03:59:17;19.30;61.20
2439;DHT22;14509;47.992;7.848;2023-09-30T04:01:19;19.30;61.00
2439;DHT22;14509;47.992;7.848;2023-09-30T04:03:21;19.30;61.00
2439;DHT22;14509;47.992;7.848;2023-09-30T04:05:25;19.80;61.50
2439;DHT22;14509;47.992;7.848;2023-09-30T04:07:30;20.20;62.00
2439;DHT22;14509;47.992;7.848;2023-09-30T04:09:31;19.40;60.80
2439;DHT22;14509;47.992;7.848;2023-09-30T04:11:33;19.80;61.20
2439;DHT22;14509;47.992;7.848;2023-09-30T04:13:35;19.30;60.60
2439;DHT22;14509;47.992;7.848;2023-09-30T04:15:37;20.20;61.60
2439;DHT22;14509;47.992;7.848;2023-09-30T04:17:39;19.90;61.20
2439;DHT22;14509;47.992;7.848;2023-09-30T04:19:41;19.40;60.70
2439;DHT22;14509;47.992;7.848;2023-09-30T04:21:45;19.30;60.70
2439;DHT22;14509;47.992;7.848;2023-09-30T04:23:47;19.30;60.60
2439;DHT22;14509;47.992;7.848;2023-09-30T04:25:49;19.90;61.40
2439;DHT22;14509;47.992;7.848;2023-09-30T04:27:51;19.20;60.70
2439;DHT22;14509;47.992;7.848;2023-09-30T04:29:53;19.30;60.80
2439;DHT22;14509;47.992;7.848;2023-09-30T04:31:55;19.20;60.80
2439;DHT22;14509;47.992;7.848;2023-09-30T04:33:57;19.20;61.00
2439;DHT22;14509;47.992;7.848;2023-09-30T04:35:59;19.90;61.80
2439;DHT22;14509;47.992;7.848;2023-09-30T04:38:02;19.20;61.00
2439;DHT22;14509;47.992;7.848;2023-09-30T04:40:07;19.10;61.00
2439;DHT22;14509;47.992;7.848;2023-09-30T04:42:15;19.10;61.20
2439;DHT22;14509;47.992;7.848;2023-09-30T04:44:18;19.10;61.40
2439;DHT22;14509;47.992;7.848;2023-09-30T04:46:20;19.10;61.40
2439;DHT22;14509;47.992;7.848;2023-09-30T04:48:23;19.10;61.80
2439;DHT22;14509;47.992;7.848;2023-09-30T04:50:25;19.10;61.90
2439;DHT22;14509;47.992;7.848;2023-09-30T04:52:27;19.20;61.80
2439;DHT22;14509;47.992;7.848;2023-09-30T04:54:31;19.80;62.30
2439;DHT22;14509;47.992;7.848;2023-09-30T04:56:33;19.30;61.60
2439;DHT22;14509;47.992;7.848;2023-09-30T04:58:35;19.30;61.40
2439;DHT22;14509;47.992;7.848;2023-09-30T05:00:37;19.90;61.80
2439;DHT22;14509;47.992;7.848;2023-09-30T05:02:40;19.50;61.20
2439;DHT22;14509;47.992;7.848;2023-09-30T05:04:41;19.50;61.00
2439;DHT22;14509;47.992;7.848;2023-09-30T05:06:43;19.60;60.80
2439;DHT22;14509;47.992;7.848;2023-09-30T05:08:45;19.70;60.70
2439;DHT22;14509;47.992;7.848;2023-09-30T05:10:49;19.70;60.60
2439;DHT22;14509;47.992;7.848;2023-09-30T05:12:51;19.80;60.20
2439;DHT22;14509;47.992;7.848;2023-09-30T05:14:54;20.90;61.10
2439;DHT22;14509;47.992;7.848;2023-09-30T05:16:55;19.90;59.80
2439;DHT22;14509;47.992;7.848;2023-09-30T05:18:57;20.00;59.50
2439;DHT22;14509;47.992;7.848;2023-09-30T05:20:59;20.30;59.60
2439;DHT22;14509;47.992;7.848;2023-09-30T05:23:02;20.00;59.20
2439;DHT22;14509;47.992;7.848;2023-09-30T05:25:04;20.10;59.10
2439;DHT22;14509;47.992;7.848;2023-09-30T05:27:08;20.00;58.90
2439;DHT22;14509;47.992;7.848;2023-09-30T05:29:10;20.00;58.90
2439;DHT22;14509;47.992;7.848;2023-09-30T05:31:11;20.20;59.20
2439;DHT22;14509;47.992;7.848;2023-09-30T05:33:13;20.00;59.10
2439;DHT22;14509;47.992;7.848;2023-09-30T05:35:15;19.90;59.20
2439;DHT22;14509;47.992;7.848;2023-09-30T05:37:17;20.00;59.30
2439;DHT22;14509;47.992;7.848;2023-09-30T05:39:22;20.10;59.30
2439;DHT22;14509;47.992;7.848;2023-09-30T05:41:25;20.10;59.20
2439;DHT22;14509;47.992;7.848;2023-09-30T05:43:29;20.10;59.00
2439;DHT22;14509;47.992;7.848;2023-09-30T05:45:32;21.30;59.80
2439;DHT22;14509;47.992;7.848;2023-09-30T05:47:35;20.10;58.80
2439;DHT22;14509;47.992;7.848;2023-09-30T05:49:37;20.40;58.90
2439;DHT22;14509;47.992;7.848;2023-09-30T05:51:38;20.10;58.70
2439;DHT22;14509;47.992;7.848;2023-09-30T05:53:41;20.20;58.90
2439;DHT22;14509;47.992;7.848;2023-09-30T05:55:43;20.10;58.90
2439;DHT22;14509;47.992;7.848;2023-09-30T05:57:46;20.10;58.90
2439;DHT22;14509;47.992;7.848;2023-09-30T05:59:49;20.00;59.00
2439;DHT22;14509;47.992;7.848;2023-09-30T06:01:51;20.00;58.90
2439;DHT22;14509;47.992;7.848;2023-09-30T06:03:53;20.00;58.90
2439;DHT22;14509;47.992;7.848;2023-09-30T06:05:55;20.40;59.40
2439;DHT22;14509;47.992;7.848;2023-09-30T06:07:58;20.00;59.00
2439;DHT22;14509;47.992;7.848;2023-09-30T06:10:00;20.10;59.30
2439;DHT22;14509;47.992;7.848;2023-09-30T06:12:04;20.00;59.10
2439;DHT22;14509;47.992;7.848;2023-09-30T06:14:07;20.00;59.10
2439;DHT22;14509;47.992;7.848;2023-09-30T06:16:10;20.10;59.10
2439;DHT22;14509;47.992;7.848;2023-09-30T06:18:12;20.10;59.00
2439;DHT22;14509;47.992;7.848;2023-09-30T06:20:16;20.10;58.90
2439;DHT22;14509;47.992;7.848;2023-09-30T06:22:18;20.10;58.50
2439;DHT22;14509;47.992;7.848;2023-09-30T06:24:20;20.20;58.60
2439;DHT22;14509;47.992;7.848;2023-09-30T06:26:22;20.20;58.50
2439;DHT22;14509;47.992;7.848;2023-09-30T06:28:26;21.40;59.50
2439;DHT22;14509;47.992;7.848;2023-09-30T06:30:28;21.40;59.50
2439;DHT22;14509;47.992;7.848;2023-09-30T06:32:32;20.20;58.70
2439;DHT22;14509;47.992;7.848;2023-09-30T06:34:34;20.70;59.10
2439;DHT22;14509;47.992;7.848;2023-09-30T06:36:36;20.20;58.70
2439;DHT22;14509;47.992;7.848;2023-09-30T06:38:38;20.20;58.80
2439;DHT22;14509;47.992;7.848;2023-09-30T06:40:40;20.20;58.70
2439;DHT22;14509;47.992;7.848;2023-09-30T06:42:43;20.30;58.70
2439;DHT22;14509;47.992;7.848;2023-09-30T06:44:45;20.30;58.60
2439;DHT22;14509;47.992;7.848;2023-09-30T06:46:47;20.40;58.60
2439;DHT22;14509;47.992;7.848;2023-09-30T06:48:52;20.40;58.50
2439;DHT22;14509;47.992;7.848;2023-09-30T06:50:54;20.50;58.40
2439;DHT22;14509;47.992;7.848;2023-09-30T06:52:56;20.60;58.40
2439;DHT22;14509;47.992;7.848;2023-09-30T06:54:58;20.60;58.20
2439;DHT22;14509;47.992;7.848;2023-09-30T06:57:00;20.70;58.00
2439;DHT22;14509;47.992;7.848;2023-09-30T06:59:02;21.40;58.30
2439;DHT22;14509;47.992;7.848;2023-09-30T07:01:04;21.00;57.80
2439;DHT22;14509;47.992;7.848;2023-09-30T07:03:07;21.50;57.90
2439;DHT22;14509;47.992;7.848;2023-09-30T07:05:12;21.40;57.40
2439;DHT22;14509;47.992;7.848;2023-09-30T07:07:14;21.40;57.00
2439;DHT22;14509;47.992;7.848;2023-09-30T07:09:16;21.50;56.50
2439;DHT22;14509;47.992;7.848;2023-09-30T07:11:27;21.70;56.10
2439;DHT22;14509;47.992;7.848;2023-09-30T07:13:29;21.80;55.90
2439;DHT22;14509;47.992;7.848;2023-09-30T07:15:32;22.10;55.80
2439;DHT22;14509;47.992;7.848;2023-09-30T07:17:35;22.00;55.30
2439;DHT22;14509;47.992;7.848;2023-09-30T07:19:36;22.60;55.30
2439;DHT22;14509;47.992;7.848;2023-09-30T07:21:40;22.30;54.50
2439;DHT22;14509;47.992;7.848;2023-09-30T07:23:42;22.40;54.20
2439;DHT22;14509;47.992;7.848;2023-09-30T07:25:44;22.80;54.20
2439;DHT22;14509;47.992;7.848;2023-09-30T07:27:46;22.60;53.70
2439;DHT22;14509;47.992;7.848;2023-09-30T07:29:51;22.80;53.50
2439;DHT22;14509;47.992;7.848;2023-09-30T07:31:53;22.90;53.10
2439;DHT22;14509;47.992;7.848;2023-09-30T07:33:55;22.60;52.70
2439;DHT22;14509;47.992;7.848;2023-09-30T07:35:57;23.10;52.70
2439;DHT22;14509;47.992;7.848;2023-09-30T07:38:03;23.30;52.50
2439;DHT22;14509;47.992;7.848;2023-09-30T07:40:06;23.50;52.40
2439;DHT22;14509;47.992;7.848;2023-09-30T07:42:10;23.60;52.00
2439;DHT22;14509;47.992;7.848;2023-09-30T07:44:12;23.70;51.60
2439;DHT22;14509;47.992;7.848;2023-09-30T07:46:14;23.80;51.50
2439;DHT22;14509;47.992;7.848;2023-09-30T07:48:17;23.90;51.10
2439;DHT22;14509;47.992;7.848;2023-09-30T07:50:19;24.10;50.70
2439;DHT22;14509;47.992;7.848;2023-09-30T07:52:21;24.20;50.40
2439;DHT22;14509;47.992;7.848;2023-09-30T07:54:24;24.40;50.20
2439;DHT22;14509;47.992;7.848;2023-09-30T07:56:27;24.50;49.90
2439;DHT22;14509;47.992;7.848;2023-09-30T07:58:30;24.60;49.40
2439;DHT22;14509;47.992;7.848;2023-09-30T08:00:33;24.70;49.00
2439;DHT22;14509;47.992;7.848;2023-09-30T08:02:36;24.80;48.60
2439;DHT22;14509;47.992;7.848;2023-09-30T08:04:38;24.80;48.50
2439;DHT22;14509;47.992;7.848;2023-09-30T08:06:40;24.80;48.40
2439;DHT22;14509;47.992;7.848;2023-09-30T08:08:43;24.80;48.40
2439;DHT22;14509;47.992;7.848;2023-09-30T08:10:47;24.90;48.50
2439;DHT22;14509;47.992;7.848;2023-09-30T08:12:49;25.00;48.50
2439;DHT22;14509;47.992;7.848;2023-09-30T08:14:51;25.00;48.30
2439;DHT22;14509;47.992;7.848;2023-09-30T08:16:53;25.10;48.20
2439;DHT22;14509;47.992;7.848;2023-09-30T08:18:55;25.10;48.10
2439;DHT22;14509;47.992;7.848;2023-09-30T08:20:58;25.80;48.50
2439;DHT22;14509;47.992;7.848;2023-09-30T08:23:00;25.10;48.00
2439;DHT22;14509;47.992;7.848;2023-09-30T08:25:03;25.10;47.90
2439;DHT22;14509;47.992;7.848;2023-09-30T08:27:08;24.60;47.30
2439;DHT22;14509;47.992;7.848;2023-09-30T08:29:10;25.10;47.60
2439;DHT22;14509;47.992;7.848;2023-09-30T08:31:12;25.20;47.60
2439;DHT22;14509;47.992;7.848;2023-09-30T08:33:17;24.20;47.00
2439;DHT22;14509;47.992;7.848;2023-09-30T08:35:20;25.10;47.80
2439;DHT22;14509;47.992;7.848;2023-09-30T08:37:22;25.20;48.10
2439;DHT22;14509;47.992;7.848;2023-09-30T08:39:23;25.20;48.00
2439;DHT22;14509;47.992;7.848;2023-09-30T08:41:31;25.20;48.00
2439;DHT22;14509;47.992;7.848;2023-09-30T08:43:38;25.70;48.50
2439;DHT22;14509;47.992;7.848;2023-09-30T08:45:44;25.60;48.60
2439;DHT22;14509;47.992;7.848;2023-09-30T08:47:49;26.30;49.20
2439;DHT22;14509;47.992;7.848;2023-09-30T08:49:54;25.30;48.90
2439;DHT22;14509;47.992;7.848;2023-09-30T08:51:59;25.20;48.60
2439;DHT22;14509;47.992;7.848;2023-09-30T08:54:03;25.30;48.70
2439;DHT22;14509;47.992;7.848;2023-09-30T08:56:07;25.20;48.80
2439;DHT22;14509;47.992;7.848;2023-09-30T08:58:12;25.20;48.90
2439;DHT22;14509;47.992;7.848;2023-09-30T09:00:16;25.20;49.10
2439;DHT22;14509;47.992;7.848;2023-09-30T09:02:18;25.20;49.10
2439;DHT22;14509;47.992;7.848;2023-09-30T09:04:19;25.30;48.50
2439;DHT22;14509;47.992;7.848;2023-09-30T09:06:22;25.30;48.40
2439;DHT22;14509;47.992;7.848;2023-09-30T09:08:26;25.40;48.60
2439;DHT22;14509;47.992;7.848;2023-09-30T09:10:27;25.40;48.50
2439;DHT22;14509;47.992;7.848;2023-09-30T09:12:29;25.30;48.50
2439;DHT22;14509;47.992;7.848;2023-09-30T09:14:38;25.40;48.50
2439;DHT22;14509;47.992;7.848;2023-09-30T09:16:53;25.40;48.70
2439;DHT22;14509;47.992;7.848;2023-09-30T09:18:55;25.60;48.60
2439;DHT22;14509;47.992;7.848;2023-09-30T09:21:08;25.40;48.40
2439;DHT22;14509;47.992;7.848;2023-09-30T09:23:15;25.20;48.50
2439;DHT22;14509;47.992;7.848;2023-09-30T09:25:17;25.20;48.60
2439;DHT22;14509;47.992;7.848;2023-09-30T09:27:20;25.20;48.70
2439;DHT22;14509;47.992;7.848;2023-09-30T09:29:25;25.10;48.70
2439;DHT22;14509;47.992;7.848;2023-09-30T09:31:29;25.20;48.80
2439;DHT22;14509;47.992;7.848;2023-09-30T09:33:36;25.20;49.00
2439;DHT22;14509;47.992;7.848;2023-09-30T09:35:38;25.20;48.60
2439;DHT22;14509;47.992;7.848;2023-09-30T09:37:39;25.20;49.00
2439;DHT22;14509;47.992;7.848;2023-09-30T09:39:49;25.20;48.90
2439;DHT22;14509;47.992;7.848;2023-09-30T09:41:53;26.30;49.50
2439;DHT22;14509;47.992;7.848;2023-09-30T09:43:59;25.20;48.80
2439;DHT22;14509;47.992;7.848;2023-09-30T09:46:01;25.30;48.50
2439;DHT22;14509;47.992;7.848;2023-09-30T09:48:13;25.40;48.30
2439;DHT22;14509;47.992;7.848;2023-09-30T09:50:17;25.40;47.80
2439;DHT22;14509;47.992;7.848;2023-09-30T09:52:20;25.30;47.90
2439;DHT22;14509;47.992;7.848;2023-09-30T09:54:25;25.50;48.10
2439;DHT22;14509;47.992;7.848;2023-09-30T09:59:11;25.40;47.90
2439;DHT22;14509;47.992;7.848;2023-09-30T10:01:13;25.40;47.80
2439;DHT22;14509;47.992;7.848;2023-09-30T10:03:15;25.40;47.50
2439;DHT22;14509;47.992;7.848;2023-09-30T10:05:20;25.50;47.50
2439;DHT22;14509;47.992;7.848;2023-09-30T10:07:26;25.60;47.70
2439;DHT22;14509;47.992;7.848;2023-09-30T10:09:29;25.60;47.40
2439;DHT22;14509;47.992;7.848;2023-09-30T10:11:32;25.90;47.60
2439;DHT22;14509;47.992;7.848;2023-09-30T10:13:53;25.70;47.60
2439;DHT22;14509;47.992;7.848;2023-09-30T10:15:56;25.70;47.60
2439;DHT22;14509;47.992;7.848;2023-09-30T10:17:58;26.10;48.10
2439;DHT22;14509;47.992;7.848;2023-09-30T10:20:06;25.80;48.00
2439;DHT22;14509;47.992;7.848;2023-09-30T10:22:22;25.80;48.10
2439;DHT22;14509;47.992;7.848;2023-09-30T10:24:29;25.90;48.00
2439;DHT22;14509;47.992;7.848;2023-09-30T10:26:30;26.00;47.90
2439;DHT22;14509;47.992;7.848;2023-09-30T10:28:36;26.00;47.30
2439;DHT22;14509;47.992;7.848;2023-09-30T10:30:38;26.00;47.30
2439;DHT22;14509;47.992;7.848;2023-09-30T10:33:12;26.10;47.40
2439;DHT22;14509;47.992;7.848;2023-09-30T10:35:15;26.10;47.10
2439;DHT22;14509;47.992;7.848;2023-09-30T10:37:22;26.10;46.90
2439;DHT22;14509;47.992;7.848;2023-09-30T10:39:53;26.20;46.30
2439;DHT22;14509;47.992;7.848;2023-09-30T10:41:55;26.30;46.40
2439;DHT22;14509;47.992;7.848;2023-09-30T10:43:57;26.40;46.30
2439;DHT22;14509;47.992;7.848;2023-09-30T10:45:59;26.40;46.30
2439;DHT22;14509;47.992;7.848;2023-09-30T10:48:36;26.40;45.70
2439;DHT22;14509;47.992;7.848;2023-09-30T10:50:51;26.40;45.90
2439;DHT22;14509;47.992;7.848;2023-09-30T10:52:55;26.40;46.00
2439;DHT22;14509;47.992;7.848;2023-09-30T10:55:05;26.50;45.90
2439;DHT22;14509;47.992;7.848;2023-09-30T10:57:10;26.40;45.80
2439;DHT22;14509;47.992;7.848;2023-09-30T10:59:18;26.70;45.50
2439;DHT22;14509;47.992;7.848;2023-09-30T11:01:21;27.70;45.80
2439;DHT22;14509;47.992;7.848;2023-09-30T11:03:23;26.40;43.80
2439;DHT22;14509;47.992;7.848;2023-09-30T11:05:25;26.80;43.50
2439;DHT22;14509;47.992;7.848;2023-09-30T11:07:28;27.00;43.60
2439;DHT22;14509;47.992;7.848;2023-09-30T11:09:33;27.40;44.40
2439;DHT22;14509;47.992;7.848;2023-09-30T11:11:38;27.00;44.00
2439;DHT22;14509;47.992;7.848;2023-09-30T11:13:43;27.10;44.20
2439;DHT22;14509;47.992;7.848;2023-09-30T11:15:45;27.10;43.60
2439;DHT22;14509;47.992;7.848;2023-09-30T11:17:46;27.20;43.80
2439;DHT22;14509;47.992;7.848;2023-09-30T11:19:48;27.20;43.70
2439;DHT22;14509;47.992;7.848;2023-09-30T11:21:52;27.30;42.20
2439;DHT22;14509;47.992;7.848;2023-09-30T11:23:55;27.30;41.70
2439;DHT22;14509;47.992;7.848;2023-09-30T11:25:58;27.30;37.80
2439;DHT22;14509;47.992;7.848;2023-09-30T11:28:13;27.30;39.30
2439;DHT22;14509;47.992;7.848;2023-09-30T11:30:16;27.40;40.50
2439;DHT22;14509;47.992;7.848;2023-09-30T11:32:23;27.30;39.40
2439;DHT22;14509;47.992;7.848;2023-09-30T11:34:34;27.40;39.50
2439;DHT22;14509;47.992;7.848;2023-09-30T11:36:38;27.50;39.50
2439;DHT22;14509;47.992;7.848;2023-09-30T11:38:44;27.60;39.60
2439;DHT22;14509;47.992;7.848;2023-09-30T11:40:59;27.80;39.60
2439;DHT22;14509;47.992;7.848;2023-09-30T11:43:09;28.20;39.60
2439;DHT22;14509;47.992;7.848;2023-09-30T11:45:19;28.00;38.00
2439;DHT22;14509;47.992;7.848;2023-09-30T11:47:28;28.10;38.10
2439;DHT22;14509;47.992;7.848;2023-09-30T11:49:32;28.10;38.30
2439;DHT22;14509;47.992;7.848;2023-09-30T11:51:42;28.10;37.00
2439;DHT22;14509;47.992;7.848;2023-09-30T11:53:46;28.10;37.10
2439;DHT22;14509;47.992;7.848;2023-09-30T11:55:49;28.70;37.30
2439;DHT22;14509;47.992;7.848;2023-09-30T11:57:56;28.00;37.10
2439;DHT22;14509;47.992;7.848;2023-09-30T11:59:59;28.40;37.40
2439;DHT22;14509;47.992;7.848;2023-09-30T12:02:01;28.30;36.80
2439;DHT22;14509;47.992;7.848;2023-09-30T12:04:04;28.80;36.90
2439;DHT22;14509;47.992;7.848;2023-09-30T12:06:05;28.60;36.80
2439;DHT22;14509;47.992;7.848;2023-09-30T12:08:07;28.80;36.60
2439;DHT22;14509;47.992;7.848;2023-09-30T12:10:09;29.00;36.50
2439;DHT22;14509;47.992;7.848;2023-09-30T12:12:11;29.20;35.70
2439;DHT22;14509;47.992;7.848;2023-09-30T12:14:16;29.40;35.10
2439;DHT22;14509;47.992;7.848;2023-09-30T12:16:18;29.60;34.90
2439;DHT22;14509;47.992;7.848;2023-09-30T12:18:21;30.00;34.80
2439;DHT22;14509;47.992;7.848;2023-09-30T12:20:24;30.00;34.50
2439;DHT22;14509;47.992;7.848;2023-09-30T12:22:26;30.00;34.00
2439;DHT22;14509;47.992;7.848;2023-09-30T12:24:28;30.70;34.40
2439;DHT22;14509;47.992;7.848;2023-09-30T12:26:31;29.90;33.50
2439;DHT22;14509;47.992;7.848;2023-09-30T12:28:32;29.70;33.60
2439;DHT22;14509;47.992;7.848;2023-09-30T12:30:36;29.50;33.70
2439;DHT22;14509;47.992;7.848;2023-09-30T12:32:38;29.30;34.20
2439;DHT22;14509;47.992;7.848;2023-09-30T12:34:40;29.50;34.50
2439;DHT22;14509;47.992;7.848;2023-09-30T12:36:42;29.10;34.40
2439;DHT22;14509;47.992;7.848;2023-09-30T12:38:45;29.00;34.30
2439;DHT22;14509;47.992;7.848;2023-09-30T12:40:47;28.90;34.50
2439;DHT22;14509;47.992;7.848;2023-09-30T12:42:49;29.20;35.60
2439;DHT22;14509;47.992;7.848;2023-09-30T12:44:51;28.80;34.70
2439;DHT22;14509;47.992;7.848;2023-09-30T12:46:54;28.70;34.70
2439;DHT22;14509;47.992;7.848;2023-09-30T12:48:55;28.70;34.60
2439;DHT22;14509;47.992;7.848;2023-09-30T12:50:58;28.70;34.60
2439;DHT22;14509;47.992;7.848;2023-09-30T12:53:00;29.30;34.70
2439;DHT22;14509;47.992;7.848;2023-09-30T12:55:03;28.70;34.30
2439;DHT22;14509;47.992;7.848;2023-09-30T12:57:05;28.70;34.00
2439;DHT22;14509;47.992;7.848;2023-09-30T12:59:08;28.80;34.00
2439;DHT22;14509;47.992;7.848;2023-09-30T13:01:11;28.80;34.00
2439;DHT22;14509;47.992;7.848;2023-09-30T13:03:15;28.80;33.80
2439;DHT22;14509;47.992;7.848;2023-09-30T13:05:17;28.90;33.00
2439;DHT22;14509;47.992;7.848;2023-09-30T13:07:20;29.00;32.90
2439;DHT22;14509;47.992;7.848;2023-09-30T13:09:22;29.20;32.00
2439;DHT22;14509;47.992;7.848;2023-09-30T13:11:25;29.30;32.10
2439;DHT22;14509;47.992;7.848;2023-09-30T13:13:28;29.50;31.80